Time;durP1;ratioP1;P1;durP2;ratioP2;P2;SDS_P1;SDS_P2;PMS_P1;PMS_P2;Temp;Humidity;BMP_temperature;BMP_pressure;BME280_temperature;BME280_humidity;BME280_pressure;Samples;Min_cycle;Max_cycle;Signal;HPM_P1;HPM_P2
2021/11/12 00:02:11;;;;;;;91.37;43.40;;;5.30;99.90;;;;;;5013899;28;20165;-55
2021/11/12 00:14:46;;;;;;;54.23;38.07;;;5.20;99.90;;;;;;5013722;28;20395;-56
2021/11/12 00:17:12;;;;;;;82.53;45.00;;;5.00;99.90;;;;;;5012874;28;20489;-55
2021/11/12 00:19:39;;;;;;;63.57;39.90;;;4.90;99.90;;;;;;5013342;28;20891;-54
2021/11/12 00:22:05;;;;;;;53.40;37.77;;;4.80;99.90;;;;;;5013439;28;20796;-57
2021/11/12 00:24:30;;;;;;;58.60;39.73;;;4.70;99.90;;;;;;5016991;28;20521;-57
2021/11/12 00:26:56;;;;;;;77.57;43.43;;;4.60;99.90;;;;;;5017084;28;20214;-54
2021/11/12 00:29:22;;;;;;;60.07;39.47;;;4.60;99.90;;;;;;5017395;28;20196;-55
2021/11/12 00:32:04;;;;;;;53.93;37.73;;;4.60;99.90;;;;;;5016008;28;20242;-54
2021/11/12 00:39:30;;;;;;;54.23;38.33;;;4.70;99.90;;;;;;5016910;28;20407;-54
2021/11/12 00:42:08;;;;;;;60.93;41.20;;;4.90;99.90;;;;;;5017281;28;20188;-54
2021/11/12 00:44:38;;;;;;;56.67;39.80;;;5.00;99.90;;;;;;5016788;28;20390;-55
2021/11/12 00:47:08;;;;;;;51.67;39.47;;;5.00;99.90;;;;;;5016737;28;20438;-56
2021/11/12 00:49:38;;;;;;;51.27;37.03;;;5.10;99.90;;;;;;5016695;28;20502;-54
2021/11/12 00:52:08;;;;;;;55.43;38.30;;;4.90;99.90;;;;;;5017300;28;20493;-53
2021/11/12 00:54:34;;;;;;;56.83;39.93;;;4.90;99.90;;;;;;5016489;28;20426;-55
2021/11/12 00:56:59;;;;;;;43.57;33.13;;;4.90;99.90;;;;;;5016466;28;20458;-53
2021/11/12 00:59:25;;;;;;;30.17;26.43;;;4.90;99.90;;;;;;5016374;28;20214;-56
2021/11/12 01:01:51;;;;;;;35.37;27.63;;;4.80;99.90;;;;;;5016192;28;20200;-54
2021/11/12 01:04:21;;;;;;;38.33;28.50;;;4.50;99.90;;;;;;5016453;28;20187;-55
2021/11/12 01:06:48;;;;;;;33.43;27.40;;;4.30;99.90;;;;;;5016440;28;20446;-55
2021/11/12 01:09:17;;;;;;;36.10;30.30;;;4.20;99.90;;;;;;5015927;28;20464;-54
2021/11/12 01:11:44;;;;;;;33.57;28.67;;;3.90;99.90;;;;;;5016507;28;20422;-55
2021/11/12 01:14:12;;;;;;;36.90;30.23;;;4.00;99.90;;;;;;5016742;28;20453;-55
2021/11/12 01:16:38;;;;;;;35.13;30.97;;;4.00;99.90;;;;;;5015796;28;20775;-55
2021/11/12 01:19:05;;;;;;;30.83;26.97;;;3.90;99.90;;;;;;5016109;28;20453;-56
2021/11/12 01:21:31;;;;;;;35.63;27.83;;;3.80;99.90;;;;;;5016153;28;20490;-56
2021/11/12 01:23:57;;;;;;;32.90;26.97;;;3.70;99.90;;;;;;5015885;28;20438;-54
2021/11/12 01:26:25;;;;;;;34.70;28.33;;;3.80;99.90;;;;;;5015690;28;20454;-57
2021/11/12 01:28:51;;;;;;;40.77;30.20;;;3.80;99.90;;;;;;5016190;28;20415;-57
2021/11/12 01:31:17;;;;;;;39.50;30.53;;;3.70;99.90;;;;;;5015684;28;20402;-55
2021/11/12 01:33:43;;;;;;;48.30;32.60;;;3.80;99.90;;;;;;5015642;28;20916;-56
2021/11/12 01:38:46;;;;;;;37.23;29.73;;;3.90;99.90;;;;;;5015816;28;20395;-55
2021/11/12 01:41:13;;;;;;;41.17;32.20;;;4.10;99.90;;;;;;5015698;28;20545;-58
2021/11/12 01:43:45;;;;;;;54.43;31.50;;;4.30;99.90;;;;;;5015979;28;20415;-58
2021/11/12 01:59:11;;;;;;;44.87;32.27;;;4.20;99.90;;;;;;5015797;28;20923;-54
2021/11/12 02:01:36;;;;;;;44.60;32.03;;;4.20;99.90;;;;;;5015147;28;20818;-57
2021/11/12 02:04:03;;;;;;;41.73;30.77;;;4.20;99.90;;;;;;5015242;28;20415;-55
2021/11/12 02:06:30;;;;;;;40.53;31.90;;;4.20;99.90;;;;;;5015167;28;20240;-53
2021/11/12 02:08:57;;;;;;;42.20;31.10;;;4.10;99.90;;;;;;5014998;28;20793;-55
2021/11/12 02:11:22;;;;;;;41.73;30.47;;;4.30;99.90;;;;;;5015184;28;20403;-54
2021/11/12 02:13:49;;;;;;;45.43;33.80;;;4.20;99.90;;;;;;5002067;28;20179;-54
2021/11/12 02:16:28;;;;;;;51.43;36.87;;;4.20;99.90;;;;;;4995268;28;20707;-56
2021/11/12 02:18:54;;;;;;;47.77;34.43;;;4.20;99.90;;;;;;4995046;28;20388;-55
2021/11/12 02:26:25;;;;;;;47.83;35.07;;;4.30;99.90;;;;;;4995171;28;20800;-56
2021/11/12 02:28:56;;;;;;;50.97;38.77;;;4.50;99.90;;;;;;4995122;28;20144;-56
2021/11/12 02:31:25;;;;;;;52.53;37.67;;;4.50;99.90;;;;;;4994913;28;20388;-57
2021/11/12 02:33:53;;;;;;;47.43;34.60;;;4.20;99.90;;;;;;4994763;28;20434;-55
2021/11/12 02:36:19;;;;;;;50.07;36.57;;;4.10;99.90;;;;;;4995077;28;20424;-55
2021/11/12 02:38:53;;;;;;;50.93;36.53;;;4.20;99.90;;;;;;4995498;28;20464;-54
2021/11/12 02:41:20;;;;;;;45.70;34.87;;;4.30;99.90;;;;;;5003553;28;20441;-54
2021/11/12 02:43:47;;;;;;;43.33;32.50;;;4.30;99.90;;;;;;5014771;28;20395;-55
2021/11/12 02:46:15;;;;;;;46.70;33.73;;;4.40;99.90;;;;;;5013694;28;20427;-53
2021/11/12 02:48:42;;;;;;;44.83;32.60;;;4.50;99.90;;;;;;5014229;28;20403;-56
2021/11/12 02:51:12;;;;;;;61.80;39.67;;;4.40;99.90;;;;;;5014469;28;20399;-53
2021/11/12 02:53:39;;;;;;;53.53;37.53;;;4.40;99.90;;;;;;5014812;28;20453;-53
2021/11/12 02:56:10;;;;;;;64.20;37.13;;;4.40;99.90;;;;;;5014425;28;20426;-57
2021/11/12 02:58:38;;;;;;;52.50;33.93;;;4.40;99.90;;;;;;5014776;28;20752;-54
2021/11/12 03:01:04;;;;;;;77.83;36.50;;;4.20;99.90;;;;;;5014308;28;20410;-55
2021/11/12 03:03:30;;;;;;;156.77;46.20;;;4.10;99.90;;;;;;5014075;28;20490;-55
2021/11/12 03:05:56;;;;;;;89.27;40.30;;;4.10;99.90;;;;;;5014280;28;20958;-54
2021/11/12 03:08:21;;;;;;;78.80;36.87;;;4.00;99.90;;;;;;5010929;28;20273;-54
2021/11/12 03:10:50;;;;;;;53.67;34.97;;;4.00;99.90;;;;;;5005342;28;20426;-54
2021/11/12 03:13:16;;;;;;;95.33;36.27;;;3.90;99.90;;;;;;5014189;28;20172;-56
2021/11/12 03:15:41;;;;;;;101.47;41.40;;;3.90;99.90;;;;;;5014105;28;20909;-55
2021/11/12 03:18:08;;;;;;;77.50;40.20;;;3.90;99.90;;;;;;5013754;28;20418;-57
2021/11/12 03:20:35;;;;;;;72.33;40.63;;;3.80;99.90;;;;;;5014390;28;20165;-55
2021/11/12 03:23:05;;;;;;;51.50;36.97;;;3.90;99.90;;;;;;5014188;28;20481;-54
2021/11/12 04:00:45;;;;;;;54.67;38.20;;;4.20;99.90;;;;;;5017838;28;20778;-53
2021/11/12 04:05:58;;;;;;;54.13;36.63;;;4.10;99.90;;;;;;5018027;28;20411;-54
2021/11/12 04:41:19;;;;;;;39.80;29.93;;;3.80;99.90;;;;;;4997207;28;20392;-55
2021/11/12 05:14:07;;;;;;;41.67;32.00;;;4.50;99.90;;;;;;5016538;28;20396;-54
2021/11/12 05:51:44;;;;;;;44.53;31.00;;;4.30;99.90;;;;;;4984969;28;20449;-58
2021/11/12 05:56:55;;;;;;;37.00;30.33;;;4.40;99.90;;;;;;5016023;28;20430;-57
2021/11/12 05:59:23;;;;;;;38.90;28.97;;;4.40;99.90;;;;;;5015253;28;20415;-58
2021/11/12 06:01:49;;;;;;;38.13;30.03;;;4.20;99.90;;;;;;5014376;28;20450;-57
2021/11/12 06:04:15;;;;;;;42.03;29.07;;;4.40;99.90;;;;;;5015355;28;20411;-58
2021/11/12 06:06:42;;;;;;;35.87;27.47;;;4.50;99.90;;;;;;5015290;28;20431;-58
2021/11/12 06:09:08;;;;;;;38.77;30.00;;;4.50;99.90;;;;;;5015275;28;20172;-58
2021/11/12 06:11:35;;;;;;;36.77;28.97;;;4.70;99.90;;;;;;5015264;28;20467;-58
2021/11/12 06:14:01;;;;;;;42.20;32.90;;;4.70;99.90;;;;;;5012870;28;20411;-57
2021/11/12 06:16:28;;;;;;;39.10;31.10;;;4.70;99.90;;;;;;5013651;28;20439;-57
2021/11/12 06:18:54;;;;;;;38.23;28.60;;;4.50;99.90;;;;;;5014929;28;20415;-56
2021/11/12 06:21:20;;;;;;;35.47;29.23;;;4.40;99.90;;;;;;5013602;28;20411;-58
2021/11/12 06:23:46;;;;;;;44.03;32.03;;;4.40;99.90;;;;;;5014984;28;20175;-58
2021/11/12 06:26:12;;;;;;;39.10;31.63;;;4.30;99.90;;;;;;5014320;28;20468;-56
2021/11/12 06:28:37;;;;;;;45.67;33.57;;;4.30;99.90;;;;;;5014472;28;20161;-58
2021/11/12 06:31:04;;;;;;;42.83;33.40;;;4.50;99.90;;;;;;5014799;28;20200;-58
2021/11/12 06:33:30;;;;;;;48.80;33.97;;;4.50;99.90;;;;;;5013966;28;20314;-58
2021/11/12 06:35:57;;;;;;;36.67;27.60;;;4.60;99.90;;;;;;5014318;28;20853;-57
2021/11/12 06:38:28;;;;;;;41.63;32.60;;;4.60;99.90;;;;;;5014160;28;20419;-56
2021/11/12 06:40:55;;;;;;;43.93;33.13;;;4.40;99.90;;;;;;5014495;28;20822;-57
2021/11/12 06:43:28;;;;;;;46.07;32.43;;;4.40;99.90;;;;;;5014128;28;20446;-57
2021/11/12 06:51:24;;;;;;;45.33;33.20;;;4.30;99.90;;;;;;5014607;28;20522;-57
2021/11/12 06:53:51;;;;;;;38.70;30.07;;;4.00;99.90;;;;;;5014205;28;20415;-58
2021/11/12 06:56:19;;;;;;;41.63;31.23;;;4.10;99.90;;;;;;5013727;28;20426;-56
2021/11/12 06:58:46;;;;;;;42.70;32.73;;;4.30;99.90;;;;;;5014144;28;20411;-57
2021/11/12 07:01:11;;;;;;;43.43;33.70;;;4.30;99.90;;;;;;5013996;28;20399;-56
2021/11/12 07:03:37;;;;;;;51.07;37.10;;;4.40;99.90;;;;;;5013281;28;20997;-56
2021/11/12 07:06:03;;;;;;;50.43;37.70;;;4.50;99.90;;;;;;4996120;28;20199;-58
2021/11/12 07:08:29;;;;;;;68.57;38.90;;;4.50;99.90;;;;;;5014136;28;20245;-50
2021/11/12 07:10:57;;;;;;;62.23;35.50;;;4.40;99.90;;;;;;5014153;28;20176;-56
2021/11/12 07:13:28;;;;;;;66.70;38.10;;;4.30;99.90;;;;;;5013929;28;20766;-58
2021/11/12 07:15:55;;;;;;;59.10;36.83;;;4.30;99.90;;;;;;5013697;28;20427;-58
2021/11/12 07:18:22;;;;;;;41.87;30.60;;;4.40;99.90;;;;;;5011605;28;20453;-58
2021/11/12 07:20:50;;;;;;;49.73;33.97;;;4.50;99.90;;;;;;5014038;28;20450;-58
2021/11/12 07:23:16;;;;;;;44.00;34.33;;;4.60;99.90;;;;;;5013680;28;20454;-58
2021/11/12 07:25:43;;;;;;;50.17;35.00;;;4.30;99.90;;;;;;5014148;28;20440;-57
2021/11/12 07:28:09;;;;;;;52.57;33.50;;;4.20;99.90;;;;;;5013338;28;20447;-58
2021/11/12 07:30:38;;;;;;;43.93;32.80;;;4.10;99.90;;;;;;5013718;28;20403;-54
2021/11/12 07:33:05;;;;;;;43.20;32.80;;;4.10;99.90;;;;;;5012486;28;20410;-58
2021/11/12 07:35:36;;;;;;;36.63;29.60;;;4.30;99.90;;;;;;5013817;28;20477;-57
2021/11/12 07:38:10;;;;;;;48.63;33.27;;;4.40;99.90;;;;;;5013621;28;20435;-56
2021/11/12 07:40:48;;;;;;;44.37;32.23;;;4.60;99.90;;;;;;5013831;28;20407;-56
2021/11/12 07:48:36;;;;;;;44.77;33.50;;;4.70;99.90;;;;;;5013002;28;20421;-57
2021/11/12 07:51:02;;;;;;;37.73;28.70;;;4.70;99.90;;;;;;5013039;28;20478;-58
2021/11/12 07:53:28;;;;;;;39.80;29.70;;;4.40;99.90;;;;;;5013387;28;20262;-56
2021/11/12 07:55:54;;;;;;;47.87;33.77;;;4.40;99.90;;;;;;5013033;28;20494;-54
2021/11/12 07:58:21;;;;;;;41.53;32.13;;;4.60;99.90;;;;;;5012873;28;20459;-55
2021/11/12 08:00:47;;;;;;;35.00;27.57;;;4.80;99.90;;;;;;5013373;28;20179;-56
2021/11/12 08:03:18;;;;;;;41.27;30.60;;;4.70;99.90;;;;;;5012460;28;20805;-56
2021/11/12 08:05:47;;;;;;;40.00;30.33;;;4.90;99.90;;;;;;5013491;28;20410;-53
2021/11/12 08:08:15;;;;;;;35.97;29.03;;;4.90;99.90;;;;;;5012940;28;20509;-57
2021/11/12 08:10:50;;;;;;;40.20;30.87;;;4.80;99.90;;;;;;5013008;28;20407;-57
2021/11/12 08:13:25;;;;;;;49.80;33.23;;;4.70;99.90;;;;;;5012884;28;20386;-58
2021/11/12 08:16:15;;;;;;;47.00;35.10;;;4.70;99.90;;;;;;5011951;28;20415;-56
2021/11/12 08:21:24;;;;;;;43.33;31.70;;;4.40;99.90;;;;;;5010257;28;20415;-58
2021/11/12 08:37:36;;;;;;;29.87;26.57;;;4.50;99.90;;;;;;5012709;28;20422;-54
2021/11/12 08:40:11;;;;;;;35.90;26.40;;;4.70;99.90;;;;;;4993254;28;20396;-55
2021/11/12 08:42:50;;;;;;;33.13;26.37;;;4.90;99.90;;;;;;4993505;28;20589;-57
2021/11/12 08:45:23;;;;;;;31.57;27.40;;;5.20;99.90;;;;;;4996327;28;20422;-57
2021/11/12 08:47:53;;;;;;;31.43;27.07;;;5.20;99.90;;;;;;4996819;28;20434;-57
2021/11/12 08:50:21;;;;;;;31.53;27.67;;;5.50;99.90;;;;;;4996790;28;20404;-57
2021/11/12 08:52:51;;;;;;;32.63;27.23;;;5.60;99.90;;;;;;4996586;28;20786;-59
2021/11/12 08:55:23;;;;;;;32.67;27.63;;;5.80;99.90;;;;;;4996662;28;20408;-56
2021/11/12 08:57:49;;;;;;;31.43;27.10;;;5.90;99.90;;;;;;4996552;28;20796;-56
2021/11/12 09:00:15;;;;;;;33.57;27.70;;;6.20;99.90;;;;;;4995091;28;20415;-56
2021/11/12 09:02:41;;;;;;;36.00;27.37;;;6.20;99.90;;;;;;5014440;28;20293;-54
2021/11/12 09:05:07;;;;;;;38.97;32.80;;;6.20;99.90;;;;;;5016011;28;20176;-56
2021/11/12 09:07:33;;;;;;;33.83;28.60;;;6.20;99.90;;;;;;5015913;28;20711;-56
2021/11/12 09:09:59;;;;;;;33.43;28.67;;;6.00;99.90;;;;;;5016270;28;20415;-57
2021/11/12 09:12:27;;;;;;;37.40;29.50;;;5.90;99.90;;;;;;5016075;28;20484;-52
2021/11/12 09:14:55;;;;;;;38.27;31.47;;;5.90;99.90;;;;;;5016743;28;20182;-55
2021/11/12 09:17:23;;;;;;;33.47;27.87;;;6.10;99.90;;;;;;5015806;28;20431;-57
2021/11/12 09:19:57;;;;;;;40.90;31.37;;;6.10;99.90;;;;;;5015816;28;20419;-50
2021/11/12 09:22:25;;;;;;;39.67;31.87;;;6.00;99.90;;;;;;5015962;28;20451;-57
2021/11/12 09:24:51;;;;;;;39.83;31.07;;;5.90;99.90;;;;;;5015897;28;20498;-55
2021/11/12 09:27:20;;;;;;;37.50;30.33;;;5.90;99.90;;;;;;5015761;28;20530;-56
2021/11/12 09:29:47;;;;;;;32.50;27.80;;;6.10;99.90;;;;;;5016201;28;20168;-58
2021/11/12 09:32:12;;;;;;;34.70;27.03;;;6.20;99.90;;;;;;5015602;28;20418;-58
2021/11/12 09:34:38;;;;;;;43.73;34.73;;;6.30;99.90;;;;;;5015410;28;20410;-58
2021/11/12 09:37:09;;;;;;;40.80;33.50;;;6.10;99.90;;;;;;5015945;28;20222;-57
2021/11/12 09:39:36;;;;;;;34.87;30.77;;;6.00;99.90;;;;;;5016431;28;20179;-57
2021/11/12 09:42:04;;;;;;;38.17;30.53;;;6.10;99.90;;;;;;5015801;28;20450;-58
2021/11/12 09:44:31;;;;;;;43.43;33.80;;;6.10;99.90;;;;;;5015550;28;20412;-57
2021/11/12 09:46:57;;;;;;;42.03;31.83;;;6.10;99.90;;;;;;5015611;28;21003;-58
2021/11/12 09:49:24;;;;;;;43.00;30.63;;;6.20;99.90;;;;;;5015312;28;20461;-56
2021/11/12 09:51:49;;;;;;;36.80;29.60;;;6.10;99.90;;;;;;5015443;28;20418;-58
2021/11/12 09:54:16;;;;;;;34.73;29.37;;;6.20;99.90;;;;;;5015251;28;20775;-57
2021/11/12 09:56:43;;;;;;;37.80;31.67;;;6.20;99.90;;;;;;5014829;28;20203;-58
2021/11/12 09:59:09;;;;;;;40.97;31.90;;;6.00;99.90;;;;;;5015187;28;20446;-59
2021/11/12 10:01:39;;;;;;;35.23;29.10;;;6.00;99.90;;;;;;5015129;28;20422;-58
2021/11/12 10:04:08;;;;;;;39.93;31.10;;;6.20;99.90;;;;;;5015425;28;20404;-58
2021/11/12 10:06:36;;;;;;;43.97;31.50;;;6.30;99.90;;;;;;5015257;28;21008;-58
2021/11/12 10:09:11;;;;;;;37.27;30.47;;;6.30;99.90;;;;;;4997413;28;20420;-58
2021/11/12 10:11:52;;;;;;;38.77;29.40;;;6.40;99.90;;;;;;5015526;28;20395;-58
2021/11/12 10:14:52;;;;;;;36.67;32.70;;;6.30;99.90;;;;;;5014584;28;20423;-58
2021/11/12 10:17:21;;;;;;;44.23;31.70;;;6.60;99.90;;;;;;5014785;28;20431;-58
2021/11/12 10:19:52;;;;;;;38.47;27.27;;;7.10;99.90;;;;;;5015124;28;20762;-58
2021/11/12 10:22:23;;;;;;;37.80;30.10;;;7.20;99.90;;;;;;5014958;28;20475;-58
2021/11/12 10:24:49;;;;;;;40.07;34.47;;;7.10;99.90;;;;;;5030195;28;20400;-57
2021/11/12 10:27:22;;;;;;;40.57;33.20;;;7.10;99.90;;;;;;5014414;28;20850;-59
2021/11/12 10:29:52;;;;;;;40.33;34.10;;;7.00;99.90;;;;;;5002791;28;20428;-57
2021/11/12 10:32:21;;;;;;;35.00;30.50;;;6.80;99.90;;;;;;5010710;28;20469;-58
2021/11/12 10:34:49;;;;;;;38.03;32.67;;;7.00;99.90;;;;;;5014343;28;20419;-58
2021/11/12 10:37:22;;;;;;;33.37;29.77;;;6.90;99.90;;;;;;5014293;28;20479;-58
2021/11/12 10:39:57;;;;;;;40.97;32.30;;;6.80;99.90;;;;;;5014368;28;20500;-58
2021/11/12 10:42:29;;;;;;;39.63;31.57;;;7.00;99.90;;;;;;5015039;28;20482;-59
2021/11/12 10:45:00;;;;;;;38.33;31.80;;;6.90;99.90;;;;;;5014116;28;20449;-55
2021/11/12 10:47:29;;;;;;;39.50;30.57;;;7.00;99.90;;;;;;5014059;28;20842;-56
2021/11/12 10:50:09;;;;;;;35.60;29.20;;;6.90;99.90;;;;;;5014105;28;20405;-56
2021/11/12 10:52:36;;;;;;;36.77;29.57;;;7.40;99.90;;;;;;5014456;28;20392;-58
2021/11/12 10:55:21;;;;;;;38.67;31.20;;;7.30;99.90;;;;;;5013948;28;20469;-57
2021/11/12 10:58:00;;;;;;;40.87;34.80;;;7.10;99.90;;;;;;5014007;28;20426;-58
2021/11/12 11:00:39;;;;;;;35.10;28.97;;;7.30;99.90;;;;;;5014267;28;20397;-59
2021/11/12 11:03:11;;;;;;;39.23;31.70;;;7.50;99.90;;;;;;5014035;28;20442;-57
2021/11/12 11:05:42;;;;;;;37.10;30.03;;;7.80;99.90;;;;;;5013644;28;20418;-56
2021/11/12 11:08:32;;;;;;;37.00;29.30;;;7.60;99.90;;;;;;5013413;28;20443;-58
2021/11/12 11:11:01;;;;;;;37.17;32.90;;;7.90;99.90;;;;;;5013999;28;20892;-58
2021/11/12 11:13:30;;;;;;;35.80;30.00;;;8.20;99.90;;;;;;5011459;28;20467;-56
2021/11/12 11:15:59;;;;;;;38.03;33.80;;;8.10;99.90;;;;;;5013329;28;20428;-57
2021/11/12 11:18:31;;;;;;;37.70;32.43;;;7.80;99.90;;;;;;5013724;28;20467;-56
2021/11/12 11:21:08;;;;;;;40.00;32.20;;;7.80;99.90;;;;;;5013387;28;20424;-55
2021/11/12 11:23:52;;;;;;;37.63;32.07;;;8.00;99.90;;;;;;5013350;28;20458;-58
2021/11/12 11:26:21;;;;;;;40.50;34.10;;;7.90;99.90;;;;;;5013297;28;20451;-56
2021/11/12 11:28:48;;;;;;;34.80;30.67;;;7.90;99.90;;;;;;5042444;22;20494;-60
2021/11/12 11:31:15;;;;;;;35.60;31.13;;;7.90;99.90;;;;;;5031339;28;20907;-58
2021/11/12 11:33:44;;;;;;;36.07;30.57;;;8.20;99.90;;;;;;5033340;28;20414;-58
2021/11/12 11:36:10;;;;;;;34.43;30.13;;;8.10;99.90;;;;;;5033501;28;20937;-60
2021/11/12 11:38:39;;;;;;;40.30;33.03;;;8.30;99.90;;;;;;5032104;28;20428;-59
2021/11/12 11:41:08;;;;;;;40.93;31.63;;;8.50;99.90;;;;;;5033703;28;20453;-61
2021/11/12 11:43:34;;;;;;;34.77;31.27;;;8.80;99.90;;;;;;5032819;28;20445;-59
2021/11/12 11:46:07;;;;;;;31.97;28.57;;;9.10;99.90;;;;;;5033438;28;20493;-58
2021/11/12 11:48:38;;;;;;;32.20;28.33;;;9.30;99.90;;;;;;5033740;28;20425;-55
2021/11/12 11:51:07;;;;;;;32.80;27.90;;;10.10;99.90;;;;;;5032996;28;20414;-61
2021/11/12 11:53:47;;;;;;;37.07;31.37;;;11.20;99.90;;;;;;5034044;28;20410;-57
2021/11/12 11:56:17;;;;;;;32.50;29.30;;;12.70;99.90;;;;;;5033924;28;20386;-58
2021/11/12 11:58:52;;;;;;;31.67;28.10;;;13.20;99.90;;;;;;5033489;28;20836;-57
2021/11/12 12:01:27;;;;;;;30.80;27.50;;;13.50;99.90;;;;;;5033457;28;20414;-57
2021/11/12 12:04:13;;;;;;;32.47;27.93;;;13.80;99.90;;;;;;5033315;28;20986;-60
2021/11/12 12:07:07;;;;;;;31.63;28.43;;;14.20;99.90;;;;;;5032717;28;20783;-57
2021/11/12 12:10:13;;;;;;;33.10;29.50;;;14.80;99.90;;;;;;5025814;28;20480;-54
2021/11/12 12:12:41;;;;;;;36.43;31.23;;;14.60;99.70;;;;;;5015005;28;20508;-57
2021/11/12 12:15:12;;;;;;;32.77;29.27;;;15.60;98.90;;;;;;5013890;28;20409;-58
2021/11/12 12:17:46;;;;;;;32.10;28.73;;;16.20;97.60;;;;;;5016106;28;20435;-57
2021/11/12 12:20:41;;;;;;;31.63;28.23;;;15.80;97.50;;;;;;5019525;28;20393;-59
2021/11/12 13:23:51;;;;;;;48.70;38.57;;;8.90;99.90;;;;;;5035811;28;20443;-59
2021/11/12 13:25:49;;;;;;;43.10;37.27;;;8.50;99.90;;;;;;5032861;28;20415;-57
2021/11/12 13:28:30;;;;;;;46.45;40.45;;;8.20;99.90;;;;;;5034593;28;20464;-58
2021/11/12 13:31:12;;;;;;;48.53;39.20;;;8.30;99.90;;;;;;5035454;28;20157;-57
2021/11/12 13:33:51;;;;;;;43.17;37.50;;;8.20;99.90;;;;;;5036409;28;20458;-59
2021/11/12 13:36:20;;;;;;;46.73;39.17;;;8.30;99.90;;;;;;5035608;28;20397;-59
2021/11/12 13:38:50;;;;;;;49.23;40.13;;;8.50;99.90;;;;;;5035392;28;20437;-59
2021/11/12 13:41:22;;;;;;;49.10;40.90;;;8.60;99.90;;;;;;5035777;28;20397;-59
2021/11/12 13:43:49;;;;;;;55.27;39.97;;;8.40;99.90;;;;;;5035136;28;20474;-60
2021/11/12 13:46:16;;;;;;;54.00;39.73;;;8.10;99.90;;;;;;5035653;28;20400;-59
2021/11/12 13:48:46;;;;;;;50.63;41.63;;;8.10;99.90;;;;;;5033963;28;20475;-58
2021/11/12 13:51:14;;;;;;;53.60;43.50;;;8.10;99.90;;;;;;5034799;28;20405;-57
2021/11/12 13:53:40;;;;;;;51.23;38.90;;;8.30;99.90;;;;;;5036117;28;20421;-58
2021/11/12 13:56:10;;;;;;;53.57;41.60;;;8.30;99.90;;;;;;5036114;28;20404;-56
2021/11/12 13:58:38;;;;;;;55.00;42.00;;;8.30;99.90;;;;;;5035306;28;20811;-57
2021/11/12 14:01:21;;;;;;;58.73;45.27;;;8.20;99.90;;;;;;5035002;28;20405;-54
2021/11/12 14:03:48;;;;;;;55.03;41.93;;;8.00;99.90;;;;;;5035168;28;20459;-55
2021/11/12 14:06:15;;;;;;;50.63;39.70;;;7.90;99.90;;;;;;5033705;28;20408;-55
2021/11/12 14:08:46;;;;;;;55.50;39.50;;;7.70;99.90;;;;;;5034977;28;20428;-53
2021/11/12 14:11:23;;;;;;;48.80;40.27;;;7.60;99.90;;;;;;5035236;28;20462;-53
2021/11/12 14:13:50;;;;;;;46.73;35.33;;;7.60;99.90;;;;;;5034691;28;20484;-58
2021/11/12 14:19:49;;;;;;;52.90;41.57;;;7.70;99.90;;;;;;5034741;28;20432;-57
2021/11/12 14:22:16;;;;;;;56.27;43.03;;;7.70;99.90;;;;;;5017641;28;20457;-60
2021/11/12 14:24:51;;;;;;;53.47;41.63;;;7.50;99.90;;;;;;5034951;28;20394;-56
2021/11/12 14:45:55;;;;;;;56.37;40.73;;;7.10;99.90;;;;;;5034657;28;20690;-52
2021/11/12 14:48:27;;;;;;;51.90;40.43;;;7.10;99.90;;;;;;5034891;28;20499;-61
2021/11/12 14:51:03;;;;;;;54.33;40.47;;;7.00;99.90;;;;;;5034536;28;20433;-59
2021/11/12 14:53:49;;;;;;;48.40;38.00;;;6.90;99.90;;;;;;5034971;28;20396;-56
2021/11/12 14:58:56;;;;;;;44.97;34.77;;;6.90;99.90;;;;;;5033789;28;20422;-60
2021/11/12 15:01:25;;;;;;;49.97;38.87;;;6.70;99.90;;;;;;5032277;28;21266;-58
2021/11/12 15:03:53;;;;;;;50.27;38.57;;;6.60;99.90;;;;;;5023716;28;20451;-55
2021/11/12 15:06:22;;;;;;;53.83;39.80;;;6.60;99.90;;;;;;5014097;28;20411;-57
2021/11/12 15:11:16;;;;;;;43.87;34.63;;;6.30;99.90;;;;;;5014562;28;20408;-53
2021/11/12 15:13:43;;;;;;;46.17;34.17;;;6.30;99.90;;;;;;5013999;28;20414;-52
2021/11/12 15:16:15;;;;;;;52.03;36.67;;;6.10;99.90;;;;;;5013972;28;20415;-56
2021/11/12 15:18:42;;;;;;;48.33;32.50;;;5.90;99.90;;;;;;5014338;28;20427;-52
2021/11/12 15:21:14;;;;;;;46.97;33.03;;;5.90;99.90;;;;;;5014516;28;20504;-54
2021/11/12 15:34:32;;;;;;;38.77;29.73;;;6.10;99.90;;;;;;5033784;28;20386;-56
2021/11/12 15:44:51;;;;;;;38.30;29.93;;;5.90;99.90;;;;;;5033543;28;20406;-59
2021/11/12 15:49:45;;;;;;;41.13;30.90;;;6.00;99.90;;;;;;5033579;28;20899;-57
2021/11/12 15:55:11;;;;;;;42.17;31.77;;;6.00;99.90;;;;;;5017447;28;20410;-57
2021/11/12 16:13:41;;;;;;;45.40;35.23;;;6.20;99.90;;;;;;5033328;28;20448;-56
2021/11/12 16:21:49;;;;;;;38.47;29.97;;;6.20;99.90;;;;;;5033485;28;20402;-57
2021/11/12 16:26:46;;;;;;;44.30;31.67;;;6.20;99.90;;;;;;5013334;28;20399;-55
2021/11/12 16:29:25;;;;;;;50.87;35.97;;;6.30;99.90;;;;;;5012985;28;20920;-56
2021/11/12 16:31:51;;;;;;;48.37;33.93;;;6.30;99.90;;;;;;5023307;28;20918;-58
2021/11/12 16:34:19;;;;;;;44.90;32.77;;;6.30;99.90;;;;;;5034110;28;20416;-59
2021/11/12 16:37:00;;;;;;;39.87;31.23;;;6.40;99.90;;;;;;5032933;28;20582;-54
2021/11/12 16:39:31;;;;;;;45.63;32.20;;;6.50;99.90;;;;;;5032961;28;20421;-59
2021/11/12 16:44:44;;;;;;;43.03;31.17;;;6.40;99.90;;;;;;5033281;28;20390;-59
2021/11/12 16:52:38;;;;;;;47.90;34.00;;;6.20;99.90;;;;;;5032769;28;20449;-53
2021/11/12 16:55:24;;;;;;;46.53;32.60;;;6.10;99.90;;;;;;5032934;28;20176;-58
2021/11/12 17:03:32;;;;;;;42.03;29.93;;;6.10;99.90;;;;;;5033602;28;20440;-58
2021/11/12 17:06:10;;;;;;;44.10;31.23;;;6.10;99.90;;;;;;5035897;28;20391;-56
2021/11/12 17:13:41;;;;;;;39.17;30.40;;;6.30;99.90;;;;;;5036374;28;20175;-56
2021/11/12 17:19:24;;;;;;;56.47;31.53;;;6.10;99.90;;;;;;5036140;28;20429;-57
2021/11/12 17:46:36;;;;;;;28.73;24.37;;;5.80;99.90;;;;;;5036010;28;20393;-57
2021/11/12 18:23:57;;;;;;;36.07;27.87;;;5.90;99.90;;;;;;5035393;28;20519;-52
2021/11/12 21:45:03;;;;;;;28.70;24.83;;;4.80;99.90;;;;;;5014311;28;20430;-53
2021/11/12 21:47:29;;;;;;;25.20;22.60;;;4.80;99.90;;;;;;5015589;28;20399;-52
2021/11/12 21:49:55;;;;;;;27.57;23.40;;;4.80;99.90;;;;;;5015335;28;20490;-53
2021/11/12 21:52:21;;;;;;;26.50;23.67;;;4.80;99.90;;;;;;5015420;28;20179;-54
2021/11/12 21:54:47;;;;;;;24.87;22.07;;;4.90;99.90;;;;;;5015079;28;20446;-52
2021/11/12 21:57:13;;;;;;;22.23;19.50;;;4.90;99.90;;;;;;5015391;28;20443;-52
2021/11/12 21:59:38;;;;;;;26.40;23.60;;;4.80;99.90;;;;;;5015152;28;20417;-53
2021/11/12 22:02:04;;;;;;;26.30;23.23;;;4.60;99.90;;;;;;5025457;28;20226;-52
2021/11/12 22:04:30;;;;;;;26.67;23.77;;;4.60;99.90;;;;;;5035764;28;20203;-52
2021/11/12 22:06:57;;;;;;;25.40;22.60;;;4.40;99.90;;;;;;5035440;28;20178;-53
2021/11/12 22:09:23;;;;;;;25.03;22.33;;;4.40;99.90;;;;;;5034672;28;20164;-53
2021/11/12 22:11:49;;;;;;;23.83;21.33;;;4.40;99.90;;;;;;5034643;28;20879;-56
2021/11/12 22:14:15;;;;;;;23.40;20.90;;;4.60;99.90;;;;;;5034987;28;20430;-53
2021/11/12 22:16:41;;;;;;;24.87;21.23;;;4.60;99.90;;;;;;5035427;28;20821;-54
2021/11/12 22:19:07;;;;;;;26.30;21.90;;;4.60;99.90;;;;;;5034984;28;20217;-55
2021/11/12 22:21:33;;;;;;;28.43;24.63;;;4.60;99.90;;;;;;5035252;28;20615;-55
2021/11/12 22:23:59;;;;;;;25.43;20.97;;;4.60;99.90;;;;;;5034373;28;20238;-56
2021/11/12 22:26:24;;;;;;;26.10;22.60;;;4.50;99.90;;;;;;5032149;28;20650;-53
2021/11/12 22:28:52;;;;;;;24.90;22.20;;;4.60;99.90;;;;;;5033769;28;20425;-52
2021/11/12 22:31:18;;;;;;;26.57;23.77;;;4.50;99.90;;;;;;5035901;28;20175;-52
2021/11/12 22:33:44;;;;;;;31.30;24.70;;;4.50;99.90;;;;;;5035631;28;20426;-53
2021/11/12 22:36:13;;;;;;;24.30;21.77;;;4.40;99.90;;;;;;5035621;28;20898;-53
2021/11/12 22:38:39;;;;;;;28.07;25.10;;;4.40;99.90;;;;;;5035574;28;20895;-53
2021/11/12 22:41:05;;;;;;;27.53;24.00;;;4.40;99.90;;;;;;5035085;28;20406;-54
2021/11/12 22:43:31;;;;;;;25.23;21.60;;;4.30;99.90;;;;;;5035553;28;20454;-52
2021/11/12 22:45:56;;;;;;;26.03;23.20;;;4.50;99.90;;;;;;5035604;28;20414;-53
2021/11/12 22:48:22;;;;;;;28.87;23.07;;;4.50;99.90;;;;;;5035009;28;20206;-53
2021/11/12 22:50:48;;;;;;;28.80;23.43;;;4.50;99.90;;;;;;5034396;28;20175;-53
2021/11/12 22:53:14;;;;;;;27.93;24.93;;;4.50;99.90;;;;;;5032827;28;20215;-52
2021/11/12 22:55:40;;;;;;;26.87;23.80;;;4.40;99.90;;;;;;5034556;28;20166;-53
2021/11/12 22:58:05;;;;;;;23.93;20.40;;;4.40;99.90;;;;;;5034224;28;20413;-52
2021/11/12 23:00:31;;;;;;;26.03;23.20;;;4.30;99.90;;;;;;5034191;28;20195;-54
2021/11/12 23:02:58;;;;;;;27.63;23.70;;;4.30;99.90;;;;;;5034180;28;20212;-54
2021/11/12 23:05:24;;;;;;;26.97;23.90;;;4.30;99.90;;;;;;5035104;28;20640;-53